Time;durP1;ratioP1;P1;durP2;ratioP2;P2;SDS_P1;SDS_P2;PMS_P1;PMS_P2;Temp;Humidity;BMP_temperature;BMP_pressure;BME280_temperature;BME280_humidity;BME280_pressure;Samples;Min_cycle;Max_cycle;Signal;HPM_P1;HPM_P2
2021/09/22 00:02:01;;;;;;;13.25;9.55;;;;;;;7.99;77.12;101988.41;1790985;80;21049;-91
2021/09/22 00:04:28;;;;;;;14.83;10.00;;;;;;;7.97;77.29;101988.73;1791701;79;21865;-90
2021/09/22 00:06:54;;;;;;;14.55;9.80;;;;;;;7.94;77.38;101996.45;1791587;79;21014;-90
2021/09/22 00:09:21;;;;;;;14.33;9.48;;;;;;;7.92;77.52;101996.73;1791646;80;21683;-89
2021/09/22 00:11:48;;;;;;;15.00;10.60;;;;;;;7.90;77.61;102005.86;1791501;80;21142;-89
2021/09/22 00:14:18;;;;;;;15.23;10.08;;;;;;;7.89;77.67;102008.39;1791841;79;20998;-90
2021/09/22 00:16:43;;;;;;;14.38;9.60;;;;;;;7.89;77.76;102007.08;1791120;80;21045;-90
2021/09/22 00:19:10;;;;;;;14.78;10.08;;;;;;;7.89;77.87;102001.83;1791660;79;21046;-90
2021/09/22 00:21:43;;;;;;;13.62;10.10;;;;;;;7.88;77.86;101999.63;1791792;79;21741;-91
2021/09/22 00:24:09;;;;;;;12.58;9.95;;;;;;;7.88;77.89;101997.39;1790626;79;21045;-91
2021/09/22 00:26:39;;;;;;;13.48;10.13;;;;;;;7.88;77.93;101998.70;1791589;79;21022;-93
2021/09/22 00:29:06;;;;;;;15.80;9.63;;;;;;;7.86;77.94;102001.65;1791870;79;21105;-92
2021/09/22 00:31:36;;;;;;;12.43;9.48;;;;;;;7.84;77.96;101995.00;1791854;80;21101;-89
2021/09/22 00:34:03;;;;;;;12.68;9.35;;;;;;;7.84;78.00;101991.48;1791675;80;21891;-89
2021/09/22 00:36:33;;;;;;;13.15;10.05;;;;;;;7.82;78.07;101998.37;1791358;80;21069;-90
2021/09/22 00:39:00;;;;;;;15.60;9.50;;;;;;;7.81;78.10;101997.86;1791610;80;21038;-90
2021/09/22 00:41:30;;;;;;;14.53;9.15;;;;;;;7.79;78.12;101992.14;1791484;79;21073;-89
2021/09/22 00:43:56;;;;;;;12.63;9.65;;;;;;;7.77;78.15;101999.02;1764036;80;21061;-90
2021/09/22 00:46:27;;;;;;;14.38;9.33;;;;;;;7.78;78.22;101997.29;1791458;80;21773;-89
2021/09/22 00:48:52;;;;;;;12.93;9.43;;;;;;;7.78;78.31;101989.01;1791025;80;21225;-89
2021/09/22 00:51:22;;;;;;;13.48;9.88;;;;;;;7.80;78.40;101985.17;1791917;80;21049;-89
2021/09/22 00:53:47;;;;;;;13.00;9.63;;;;;;;7.83;78.35;101987.05;1740471;80;20998;-89
2021/09/22 00:56:17;;;;;;;13.30;10.13;;;;;;;7.81;78.28;101984.75;1791812;80;21543;-90
2021/09/22 00:58:44;;;;;;;12.10;9.35;;;;;;;7.81;78.27;101991.30;1792049;79;21792;-91
2021/09/22 01:01:12;;;;;;;15.88;9.98;;;;;;;7.78;78.26;101982.45;1791165;80;21550;-92
2021/09/22 01:03:41;;;;;;;14.40;10.20;;;;;;;7.79;78.30;101982.97;1791722;79;21536;-92
2021/09/22 01:06:09;;;;;;;16.17;10.45;;;;;;;7.79;78.33;101982.97;1764559;80;21531;-90
2021/09/22 01:08:36;;;;;;;13.98;10.55;;;;;;;7.78;78.32;101981.56;1791561;79;21045;-91
2021/09/22 01:11:03;;;;;;;13.08;9.75;;;;;;;7.78;78.42;101981.14;1791659;80;22417;-90
2021/09/22 01:13:30;;;;;;;15.10;10.40;;;;;;;7.83;78.54;101985.73;1791485;80;21077;-90
2021/09/22 01:15:57;;;;;;;15.50;10.25;;;;;;;7.86;78.62;101981.98;1791594;79;21022;-89
2021/09/22 01:18:25;;;;;;;19.35;10.43;;;;;;;7.92;78.69;101982.31;1715857;80;21093;-89
2021/09/22 01:20:56;;;;;;;13.40;10.38;;;;;;;7.98;78.74;101977.44;1791703;79;21508;-89
2021/09/22 01:23:24;;;;;;;15.90;9.53;;;;;;;8.06;78.72;101978.75;1791321;79;22517;-90
2021/09/22 01:25:54;;;;;;;15.25;10.60;;;;;;;8.14;78.68;101979.16;1791131;79;21116;-90
2021/09/22 01:28:25;;;;;;;14.43;10.03;;;;;;;8.21;78.65;101976.48;1791197;79;21575;-90
2021/09/22 01:30:55;;;;;;;12.53;9.43;;;;;;;8.24;78.49;101970.99;1791503;80;21061;-90
2021/09/22 01:33:23;;;;;;;12.50;9.68;;;;;;;8.28;78.38;101970.75;1791666;80;21017;-90
2021/09/22 01:35:50;;;;;;;12.40;9.83;;;;;;;8.28;78.23;101959.84;1791690;79;21341;-89
2021/09/22 01:38:23;;;;;;;14.68;9.50;;;;;;;8.28;78.17;101962.89;1792000;79;21576;-90
2021/09/22 01:41:05;;;;;;;13.07;9.33;;;;;;;8.29;78.14;101962.05;1792087;79;21479;-92
2021/09/22 01:43:33;;;;;;;14.43;9.43;;;;;;;8.30;78.20;101962.55;1791596;80;21530;-90
2021/09/22 01:46:01;;;;;;;11.90;9.18;;;;;;;8.35;78.23;101966.30;1764187;80;21001;-90
2021/09/22 01:48:28;;;;;;;16.87;10.18;;;;;;;8.39;78.25;101963.05;1791329;80;21701;-90
2021/09/22 01:50:56;;;;;;;13.30;9.50;;;;;;;8.46;78.24;101965.19;1791179;79;21045;-88
2021/09/22 01:53:23;;;;;;;12.45;9.00;;;;;;;8.52;78.22;101966.84;1791306;80;21278;-89
2021/09/22 01:55:55;;;;;;;14.05;10.20;;;;;;;8.59;78.15;101963.22;1791067;80;21496;-90
2021/09/22 01:58:26;;;;;;;12.78;9.70;;;;;;;8.64;78.07;101968.31;1791657;80;21054;-91
2021/09/22 02:00:51;;;;;;;12.85;9.75;;;;;;;8.70;78.01;101962.06;1790925;80;21782;-90
2021/09/22 02:03:18;;;;;;;13.80;9.58;;;;;;;8.74;77.93;101963.59;1791522;80;21018;-89
2021/09/22 02:05:45;;;;;;;13.48;9.50;;;;;;;8.79;77.89;101971.73;1791664;80;21461;-89
2021/09/22 02:08:12;;;;;;;14.63;9.83;;;;;;;8.83;77.78;101968.85;1791692;79;21473;-90
2021/09/22 02:10:39;;;;;;;13.72;9.48;;;;;;;8.85;77.70;101966.78;1791808;79;21057;-90
2021/09/22 02:13:09;;;;;;;12.10;9.05;;;;;;;8.88;77.68;101964.75;1791688;79;21740;-90
2021/09/22 02:15:36;;;;;;;10.80;9.08;;;;;;;8.93;77.63;101963.23;1791449;79;21049;-91
2021/09/22 02:18:03;;;;;;;12.28;8.65;;;;;;;8.94;77.53;101959.80;1791641;79;20987;-91
2021/09/22 02:20:30;;;;;;;11.73;8.70;;;;;;;8.96;77.53;101958.15;1791622;79;21022;-92
2021/09/22 02:22:59;;;;;;;11.12;7.97;;;;;;;9.00;77.52;101958.79;1791714;79;21017;-91
2021/09/22 02:25:31;;;;;;;15.80;8.35;;;;;;;9.03;77.48;101962.89;1785391;80;21675;-91
2021/09/22 02:27:57;;;;;;;11.65;8.30;;;;;;;9.06;77.33;101969.59;1785033;80;21535;-90
2021/09/22 02:30:24;;;;;;;13.28;8.25;;;;;;;9.08;77.37;101960.48;1784892;80;21261;-90
2021/09/22 02:32:51;;;;;;;10.30;7.97;;;;;;;9.11;77.31;101958.02;1785285;80;21596;-90
2021/09/22 02:35:21;;;;;;;11.38;8.65;;;;;;;9.10;77.32;101955.82;1785068;80;21081;-90
2021/09/22 02:37:51;;;;;;;12.20;7.92;;;;;;;9.14;77.32;101959.09;1785176;80;21740;-89
2021/09/22 02:40:19;;;;;;;12.90;8.20;;;;;;;9.18;77.28;101954.89;1784784;80;21066;-89
2021/09/22 02:42:46;;;;;;;12.18;8.03;;;;;;;9.19;77.24;101959.30;1785133;80;21470;-88
2021/09/22 02:45:15;;;;;;;10.15;8.08;;;;;;;9.21;77.22;101959.38;1753694;80;21620;-88
2021/09/22 02:47:55;;;;;;;;;;;;;;;;;;;;;
2021/09/22 02:50:34;;;;;;;9.90;7.78;;;;;;;9.24;77.19;101955.61;1617121;87;21198;-88
2021/09/22 02:53:00;;;;;;;9.65;7.72;;;;;;;9.27;77.17;101958.36;1617137;87;21111;-90
2021/09/22 02:55:29;;;;;;;11.73;7.75;;;;;;;9.30;77.15;101963.36;1617544;88;21719;-91
2021/09/22 02:58:02;;;;;;;10.55;7.47;;;;;;;9.32;77.13;101957.77;1617815;87;21624;-89
2021/09/22 03:00:28;;;;;;;12.93;7.62;;;;;;;9.36;77.03;101961.45;1617672;87;21103;-91
2021/09/22 03:02:59;;;;;;;9.93;7.70;;;;;;;9.38;77.08;101965.47;1617764;87;22589;-91
2021/09/22 03:05:28;;;;;;;10.13;7.53;;;;;;;9.40;77.04;101969.97;1616976;87;21090;-93
2021/09/22 03:07:57;;;;;;;10.60;7.20;;;;;;;9.41;77.00;101970.47;1617047;88;21841;-91
2021/09/22 03:10:24;;;;;;;9.15;7.00;;;;;;;9.43;76.90;101978.02;1617484;87;21625;-91
2021/09/22 03:12:53;;;;;;;9.65;6.97;;;;;;;9.42;76.93;101981.48;1617453;87;21625;-91
2021/09/22 03:15:27;;;;;;;11.65;7.40;;;;;;;9.44;76.91;101979.83;1595072;88;21146;-91
2021/09/22 03:17:52;;;;;;;10.63;6.87;;;;;;;9.47;76.97;101979.96;1616779;87;21127;-91
2021/09/22 03:20:23;;;;;;;9.98;7.08;;;;;;;9.49;76.92;101980.93;1617441;87;21193;-89
2021/09/22 03:22:48;;;;;;;10.58;7.35;;;;;;;9.52;76.87;101983.73;1617159;88;21844;-90
2021/09/22 03:25:22;;;;;;;11.10;7.00;;;;;;;9.54;76.86;101982.07;1599266;87;21626;-90
2021/09/22 03:27:55;;;;;;;10.78;7.03;;;;;;;9.60;76.92;101989.78;1715436;80;21077;-89
2021/09/22 03:30:23;;;;;;;9.80;6.65;;;;;;;9.62;76.79;101988.12;1761217;80;21531;-90
2021/09/22 03:32:54;;;;;;;8.40;6.90;;;;;;;9.63;76.73;101988.20;1790820;78;21014;-90
2021/09/22 03:35:19;;;;;;;7.67;6.25;;;;;;;9.65;76.68;101985.23;1791126;80;21540;-91
2021/09/22 03:37:49;;;;;;;9.33;6.22;;;;;;;9.65;76.64;101981.28;1790816;80;21084;-91
2021/09/22 03:40:14;;;;;;;9.58;6.47;;;;;;;9.65;76.55;101985.23;1790729;80;22271;-90
2021/09/22 03:42:45;;;;;;;7.97;6.00;;;;;;;9.66;76.55;101991.38;1790769;79;20990;-91
2021/09/22 03:45:15;;;;;;;7.95;6.58;;;;;;;9.66;76.53;101983.49;1789834;80;20998;-90
2021/09/22 03:47:44;;;;;;;8.28;5.67;;;;;;;9.65;76.47;101981.28;1790685;79;21555;-91
2021/09/22 03:50:14;;;;;;;7.03;5.22;;;;;;;9.67;76.51;101983.57;1788575;80;21089;-90
2021/09/22 03:52:41;;;;;;;10.32;6.45;;;;;;;9.68;76.45;101987.09;1790490;80;22411;-88
2021/09/22 03:55:08;;;;;;;8.08;6.00;;;;;;;9.69;76.42;101987.59;1790772;78;21614;-86
2021/09/22 03:57:58;;;;;;;9.45;6.47;;;;;;;9.71;76.41;101989.45;1790587;80;21566;-89
2021/09/22 04:00:26;;;;;;;9.33;6.65;;;;;;;9.71;76.28;101994.72;1760329;80;21551;-84
2021/09/22 04:02:56;;;;;;;9.53;7.42;;;;;;;9.70;76.26;101994.64;1789993;80;21049;-83
2021/09/22 04:05:25;;;;;;;8.50;6.28;;;;;;;9.69;76.21;101996.37;1790287;80;21761;-83
2021/09/22 04:07:52;;;;;;;10.13;6.85;;;;;;;9.69;76.18;101995.06;1790136;80;21046;-84
2021/09/22 04:10:21;;;;;;;9.88;6.20;;;;;;;9.69;76.11;101994.17;1761511;80;21521;-85
2021/09/22 04:12:48;;;;;;;6.90;5.85;;;;;;;9.70;76.12;101998.20;1790070;79;21050;-82
2021/09/22 04:15:15;;;;;;;9.73;6.05;;;;;;;9.69;75.99;101996.37;1790321;79;21049;-86
2021/09/22 04:17:41;;;;;;;9.53;6.55;;;;;;;9.69;76.03;101999.00;1801761;79;21753;-80
2021/09/22 04:20:12;;;;;;;9.08;5.97;;;;;;;9.70;75.98;102003.45;1809885;79;21114;-81
2021/09/22 04:22:39;;;;;;;8.18;6.12;;;;;;;9.74;76.08;102004.47;1810156;79;21062;-82
2021/09/22 04:25:10;;;;;;;8.80;6.90;;;;;;;9.78;76.04;102006.45;1814909;78;20983;-82
2021/09/22 04:27:37;;;;;;;8.78;5.97;;;;;;;9.81;75.99;102008.31;1796372;78;21366;-82
2021/09/22 04:30:05;;;;;;;9.73;6.62;;;;;;;9.80;75.80;102011.36;1824060;78;21816;-81
2021/09/22 04:32:32;;;;;;;7.62;5.33;;;;;;;9.83;75.83;102032.53;1756739;81;21067;-81
2021/09/22 04:34:59;;;;;;;10.40;6.12;;;;;;;9.86;75.79;102039.69;1761463;81;21101;-81
2021/09/22 04:37:29;;;;;;;5.80;5.12;;;;;;;9.86;75.75;102034.01;1755321;81;21093;-84
2021/09/22 04:39:59;;;;;;;11.28;5.75;;;;;;;9.84;75.76;102039.61;1733949;81;21114;-86
2021/09/22 04:42:26;;;;;;;8.33;4.58;;;;;;;9.87;75.91;102041.08;1761212;81;21764;-84
2021/09/22 04:44:57;;;;;;;6.58;4.80;;;;;;;9.86;75.87;102043.21;1755085;81;21113;-84
2021/09/22 04:47:22;;;;;;;7.20;5.28;;;;;;;9.86;75.82;102050.20;1760828;81;21121;-81
2021/09/22 04:49:49;;;;;;;8.03;5.40;;;;;;;9.89;75.95;102052.58;1755160;81;21579;-82
2021/09/22 04:52:18;;;;;;;10.50;5.28;;;;;;;9.91;76.00;102052.66;1740846;81;21618;-87
2021/09/22 04:54:45;;;;;;;11.43;5.30;;;;;;;9.91;75.90;102054.86;1788046;80;21814;-88
2021/09/22 04:57:12;;;;;;;9.38;6.60;;;;;;;9.90;75.94;102050.41;1787897;80;21544;-84
2021/09/22 04:59:38;;;;;;;8.60;5.50;;;;;;;9.93;76.08;102046.63;1787749;79;21339;-83
2021/09/22 05:02:05;;;;;;;9.15;5.45;;;;;;;10.00;76.24;102050.86;1787811;80;21042;-82
2021/09/22 05:04:32;;;;;;;8.80;6.28;;;;;;;10.03;76.29;102050.60;1788144;80;21050;-86
2021/09/22 05:06:58;;;;;;;10.53;6.47;;;;;;;10.08;76.41;102051.73;1788059;80;21758;-83
2021/09/22 05:09:37;;;;;;;7.37;6.00;;;;;;;10.14;76.39;102049.80;1787753;80;21275;-86
2021/09/22 05:12:05;;;;;;;9.53;6.33;;;;;;;10.18;76.31;102047.80;1736547;80;21094;-86
2021/09/22 05:14:33;;;;;;;8.18;5.85;;;;;;;10.20;76.24;102043.93;1760829;80;21137;-86
2021/09/22 05:17:00;;;;;;;7.10;5.83;;;;;;;10.22;76.21;102043.59;1788256;80;21615;-86
2021/09/22 05:19:27;;;;;;;9.68;6.45;;;;;;;10.23;76.15;102046.69;1788316;80;21817;-85
2021/09/22 05:21:57;;;;;;;8.88;5.97;;;;;;;10.27;76.17;102056.55;1788144;80;21010;-86
2021/09/22 05:24:23;;;;;;;11.63;6.25;;;;;;;10.30;76.15;102053.69;1787146;80;21058;-83
2021/09/22 05:26:50;;;;;;;7.35;5.50;;;;;;;10.36;76.09;102058.34;1753852;80;21664;-83
2021/09/22 05:29:17;;;;;;;9.60;6.15;;;;;;;10.41;76.04;102051.53;1775010;79;21061;-86
2021/09/22 05:31:47;;;;;;;10.38;5.83;;;;;;;10.46;76.05;102051.77;1804488;79;21782;-86
2021/09/22 05:34:14;;;;;;;10.68;5.83;;;;;;;10.52;75.97;102057.73;1774508;79;21724;-85
2021/09/22 05:36:41;;;;;;;8.28;5.25;;;;;;;10.55;75.92;102056.53;1824003;78;21053;-85
2021/09/22 05:39:07;;;;;;;9.53;5.70;;;;;;;10.56;75.76;102061.88;1823932;78;21113;-85
2021/09/22 05:41:34;;;;;;;9.68;6.35;;;;;;;10.59;75.81;102065.09;1823993;78;21030;-85
2021/09/22 05:44:01;;;;;;;11.12;6.15;;;;;;;10.63;75.77;102067.91;1823578;78;21740;-85
2021/09/22 05:46:28;;;;;;;8.75;5.78;;;;;;;10.66;75.74;102065.44;1823815;78;21481;-84
2021/09/22 05:48:54;;;;;;;11.18;5.87;;;;;;;10.68;75.57;102067.72;1823813;78;21026;-84
2021/09/22 05:51:21;;;;;;;6.83;5.65;;;;;;;10.75;75.70;102070.63;1823854;78;21236;-85
2021/09/22 05:53:48;;;;;;;9.58;5.72;;;;;;;10.78;75.64;102074.30;1823899;78;21030;-85
2021/09/22 05:56:15;;;;;;;7.87;6.65;;;;;;;10.82;75.66;102069.65;1824034;78;21749;-85
2021/09/22 05:58:42;;;;;;;9.58;6.75;;;;;;;10.86;75.58;102075.53;1824014;78;21050;-85
2021/09/22 06:01:09;;;;;;;7.10;5.90;;;;;;;10.88;75.56;102073.87;1824005;78;21066;-85
2021/09/22 06:03:36;;;;;;;7.53;5.75;;;;;;;10.87;75.29;102079.09;1824025;78;21124;-85
2021/09/22 06:06:02;;;;;;;9.18;6.25;;;;;;;10.84;75.26;102073.25;1824172;78;21081;-85
2021/09/22 06:08:29;;;;;;;8.68;6.08;;;;;;;10.85;75.40;102078.13;1824030;78;21221;-85
2021/09/22 06:11:02;;;;;;;11.33;6.25;;;;;;;10.88;75.26;102082.20;1824027;78;21651;-85
2021/09/22 06:13:25;;;;;;;9.50;6.42;;;;;;;10.88;75.21;102072.55;1821240;78;21030;-84
2021/09/22 06:15:52;;;;;;;9.33;6.25;;;;;;;10.88;75.12;102070.34;1824128;78;21046;-85
2021/09/22 06:18:22;;;;;;;10.20;6.72;;;;;;;10.90;75.20;102076.58;1823959;78;21041;-84
2021/09/22 06:20:47;;;;;;;7.25;5.90;;;;;;;10.96;75.26;102076.88;1823630;78;21862;-84
2021/09/22 06:23:14;;;;;;;8.58;6.85;;;;;;;11.05;75.21;102079.88;1823962;78;21552;-84
2021/09/22 06:25:41;;;;;;;8.78;6.15;;;;;;;11.14;75.12;102085.99;1825278;78;21025;-84
2021/09/22 06:28:10;;;;;;;7.80;6.17;;;;;;;11.21;75.04;102084.54;1826535;78;21018;-85
2021/09/22 06:30:37;;;;;;;7.35;6.22;;;;;;;11.28;75.04;102087.51;1827250;78;21053;-84
2021/09/22 06:33:03;;;;;;;9.33;7.78;;;;;;;11.33;74.83;102081.53;1826974;78;21902;-85
2021/09/22 06:35:30;;;;;;;8.48;6.67;;;;;;;11.33;74.74;102081.10;1826835;78;21041;-85
2021/09/22 06:37:57;;;;;;;10.45;6.62;;;;;;;11.33;74.62;102084.16;1826949;78;21042;-84
2021/09/22 06:40:23;;;;;;;11.80;7.47;;;;;;;11.32;74.46;102085.91;1826831;78;21061;-84
2021/09/22 06:42:50;;;;;;;11.70;6.28;;;;;;;11.34;74.58;102084.23;1826887;78;21014;-84
2021/09/22 06:45:18;;;;;;;8.18;6.33;;;;;;;11.38;74.56;102087.48;1827038;78;21736;-84
2021/09/22 06:47:45;;;;;;;12.35;6.30;;;;;;;11.42;74.60;102094.68;1794447;79;21559;-84
2021/09/22 06:50:12;;;;;;;9.13;6.90;;;;;;;11.43;74.57;102099.53;1827000;78;21053;-85
2021/09/22 06:52:44;;;;;;;9.65;7.70;;;;;;;11.48;74.78;102094.05;1825863;78;21077;-84
2021/09/22 06:55:10;;;;;;;11.88;7.95;;;;;;;11.53;74.85;102095.58;1826201;78;21073;-84
2021/09/22 06:57:37;;;;;;;51.68;29.82;;;;;;;11.56;74.95;102087.77;1827061;78;21753;-83
2021/09/22 07:00:09;;;;;;;26.12;15.80;;;;;;;11.64;75.01;102089.91;1826867;78;21046;-84
2021/09/22 07:02:34;;;;;;;19.40;12.53;;;;;;;11.71;74.76;102092.80;1826918;78;21018;-84
2021/09/22 07:05:01;;;;;;;13.28;8.93;;;;;;;11.74;74.74;102098.21;1827108;78;21549;-84
2021/09/22 07:07:28;;;;;;;12.07;8.25;;;;;;;11.83;74.81;102092.00;1826965;78;21100;-84
2021/09/22 07:09:55;;;;;;;12.80;9.15;;;;;;;11.97;74.69;102085.99;1826946;78;21730;-84
2021/09/22 07:12:21;;;;;;;11.48;8.13;;;;;;;12.14;74.64;102087.99;1826800;78;21476;-84
2021/09/22 07:14:48;;;;;;;12.23;8.35;;;;;;;12.39;74.56;102092.52;1827095;78;21061;-84
2021/09/22 07:17:17;;;;;;;10.23;7.15;;;;;;;12.68;74.40;102096.70;1826933;78;21014;-85
2021/09/22 07:19:43;;;;;;;14.47;7.90;;;;;;;12.87;73.94;102094.31;1794314;79;21077;-84
2021/09/22 07:22:10;;;;;;;10.58;6.87;;;;;;;13.09;73.64;102095.58;1827068;78;21763;-84
2021/09/22 07:24:37;;;;;;;9.53;7.12;;;;;;;13.23;73.46;102090.38;1827194;78;21049;-84
2021/09/22 07:27:03;;;;;;;11.10;7.20;;;;;;;13.35;73.08;102097.87;1823985;78;21034;-85
2021/09/22 07:29:30;;;;;;;56.92;10.85;;;;;;;13.39;72.96;102102.41;1824045;78;21035;-85
2021/09/22 07:31:57;;;;;;;70.70;11.78;;;;;;;13.45;72.88;102101.73;1823896;78;21645;-84
2021/09/22 07:34:24;;;;;;;70.15;11.60;;;;;;;13.48;72.65;102103.60;1823782;78;22714;-84
2021/09/22 07:36:51;;;;;;;346.45;37.00;;;;;;;13.49;72.56;102101.41;1823844;78;20986;-84
2021/09/22 07:39:18;;;;;;;77.47;14.03;;;;;;;13.49;72.33;102102.30;1823789;78;21061;-84
2021/09/22 07:41:44;;;;;;;115.50;16.17;;;;;;;13.50;72.32;102101.47;1823873;78;20991;-84
2021/09/22 07:44:11;;;;;;;59.08;10.58;;;;;;;13.49;72.03;102102.73;1824021;78;21081;-84
2021/09/22 07:46:38;;;;;;;40.00;8.80;;;;;;;13.44;72.05;102102.99;1823792;78;21764;-85
2021/09/22 07:49:04;;;;;;;24.90;8.25;;;;;;;13.42;72.10;102106.94;1823741;78;21046;-85
2021/09/22 07:51:31;;;;;;;37.73;9.55;;;;;;;13.40;72.07;102105.95;1823541;78;21054;-84
2021/09/22 07:53:58;;;;;;;11.15;6.05;;;;;;;13.40;72.06;102106.88;1824009;78;21635;-84
2021/09/22 07:56:24;;;;;;;148.02;16.17;;;;;;;13.38;71.96;102111.22;1823963;78;21096;-85
2021/09/22 07:58:51;;;;;;;23.40;7.90;;;;;;;13.39;71.95;102117.39;1824021;78;22508;-85
2021/09/22 08:01:18;;;;;;;16.50;7.55;;;;;;;13.43;71.97;102111.36;1823761;78;21006;-84
2021/09/22 08:03:44;;;;;;;10.78;7.30;;;;;;;13.49;72.00;102110.24;1823652;78;21611;-85
2021/09/22 08:06:11;;;;;;;9.78;5.58;;;;;;;13.58;72.00;102117.61;1823785;78;21543;-84
2021/09/22 08:08:41;;;;;;;8.58;5.85;;;;;;;13.63;71.87;102121.72;1823844;78;21053;-84
2021/09/22 08:11:08;;;;;;;12.85;5.17;;;;;;;13.70;71.95;102123.34;1823001;78;21887;-84
2021/09/22 08:13:34;;;;;;;8.40;5.67;;;;;;;13.79;72.06;102119.68;1823728;78;21056;-84
2021/09/22 08:16:01;;;;;;;7.97;5.87;;;;;;;13.91;72.04;102114.32;1823860;78;21093;-84
2021/09/22 08:18:28;;;;;;;13.13;5.30;;;;;;;13.98;71.90;102119.86;1823678;78;21053;-84
2021/09/22 08:20:54;;;;;;;9.68;6.15;;;;;;;14.03;71.51;102112.49;1823869;78;21051;-84
2021/09/22 08:23:22;;;;;;;13.38;5.40;;;;;;;14.01;71.12;102115.08;1823744;78;21733;-85
2021/09/22 08:25:50;;;;;;;12.60;5.50;;;;;;;14.06;71.28;102113.50;1824319;78;21409;-84
2021/09/22 08:28:17;;;;;;;8.28;5.75;;;;;;;14.13;70.99;102113.25;1826396;78;21050;-84
2021/09/22 08:30:44;;;;;;;10.18;6.30;;;;;;;14.13;70.73;102114.17;1826697;78;21045;-84
2021/09/22 08:33:11;;;;;;;11.88;6.00;;;;;;;14.14;70.61;102118.59;1826654;78;21018;-84
2021/09/22 08:35:38;;;;;;;11.40;6.08;;;;;;;14.19;70.54;102124.06;1826735;78;21730;-84
2021/09/22 08:38:04;;;;;;;11.68;6.37;;;;;;;14.22;70.47;102122.81;1826940;78;21049;-84
2021/09/22 08:40:31;;;;;;;12.25;6.83;;;;;;;14.27;70.43;102119.01;1826719;78;21038;-85
2021/09/22 08:42:59;;;;;;;11.45;7.95;;;;;;;14.32;70.29;102118.30;1826752;78;21025;-84
2021/09/22 08:45:25;;;;;;;12.70;8.85;;;;;;;14.39;70.31;102112.31;1799473;78;21069;-84
2021/09/22 08:47:52;;;;;;;15.05;8.53;;;;;;;14.49;70.24;102112.20;1826923;78;21672;-84
2021/09/22 08:50:19;;;;;;;12.63;8.38;;;;;;;14.57;69.88;102118.66;1826711;78;21034;-84
2021/09/22 08:52:48;;;;;;;12.15;8.83;;;;;;;14.64;69.90;102112.20;1798483;78;34638;-84
2021/09/22 08:55:15;;;;;;;13.70;8.73;;;;;;;14.75;69.76;102106.40;1826413;78;21439;-84
2021/09/22 08:57:42;;;;;;;17.98;8.75;;;;;;;14.79;69.43;102108.72;1826814;78;21512;-84
2021/09/22 09:00:10;;;;;;;14.30;8.78;;;;;;;14.81;69.37;102110.98;1826874;78;21728;-84
2021/09/22 09:02:44;;;;;;;13.72;7.83;;;;;;;14.86;69.35;102113.75;1799314;78;21594;-84
2021/09/22 09:05:13;;;;;;;18.37;7.62;;;;;;;14.91;69.20;102113.03;1825982;78;21065;-84
2021/09/22 09:07:55;;;;;;;9.80;7.00;;;;;;;14.94;69.12;102113.53;1799255;78;21038;-84
2021/09/22 09:10:28;;;;;;;13.80;7.58;;;;;;;14.97;69.16;102111.87;1826728;78;21045;-84
2021/09/22 09:13:07;;;;;;;16.17;6.72;;;;;;;14.96;69.03;102115.83;1826893;78;21771;-84
2021/09/22 09:15:42;;;;;;;17.50;7.08;;;;;;;14.93;68.95;102115.30;1826727;78;21018;-84
2021/09/22 09:18:17;;;;;;;14.63;6.87;;;;;;;14.93;68.91;102115.30;1826788;78;21456;-85
2021/09/22 09:20:48;;;;;;;10.93;6.45;;;;;;;14.97;68.88;102114.52;1794311;79;21014;-84
2021/09/22 09:23:16;;;;;;;12.90;6.62;;;;;;;15.01;68.80;102107.55;1825991;78;21073;-84
2021/09/22 09:26:00;;;;;;;7.72;6.05;;;;;;;15.08;68.67;102108.20;1826774;78;21744;-84
2021/09/22 09:28:34;;;;;;;11.20;7.20;;;;;;;15.12;68.31;102109.20;1794560;79;21630;-84
2021/09/22 09:31:07;;;;;;;12.68;6.28;;;;;;;15.14;68.06;102110.13;1826874;78;21033;-84
2021/09/22 09:33:44;;;;;;;9.03;6.00;;;;;;;15.19;67.87;102111.61;1826826;78;21045;-85
2021/09/22 09:36:35;;;;;;;8.23;6.12;;;;;;;15.23;67.79;102113.05;1826940;78;21069;-84
2021/09/22 09:39:11;;;;;;;10.70;6.62;;;;;;;15.27;67.64;102112.27;1827005;78;21752;-84
2021/09/22 09:41:48;;;;;;;16.37;8.23;;;;;;;15.26;67.39;102102.53;1826808;78;21010;-84
2021/09/22 09:44:12;;;;;;;63.28;12.00;;;;;;;15.27;67.39;102108.73;1824982;78;21570;-85
2021/09/22 09:46:40;;;;;;;18.45;9.00;;;;;;;15.30;67.40;102102.19;1810914;79;21109;-84
2021/09/22 09:49:12;;;;;;;14.60;7.28;;;;;;;15.31;67.43;102098.66;1794295;79;21065;-84
2021/09/22 09:51:44;;;;;;;13.48;7.12;;;;;;;15.34;67.45;102098.75;1826750;78;22624;-84
2021/09/22 09:54:21;;;;;;;27.32;9.10;;;;;;;15.34;67.25;102098.31;1826749;78;20999;-84
2021/09/22 09:56:48;;;;;;;13.98;7.33;;;;;;;15.33;67.02;102099.20;1826600;78;21536;-84
2021/09/22 09:59:16;;;;;;;11.63;6.55;;;;;;;15.31;67.03;102098.22;1826840;78;21563;-84
2021/09/22 10:01:47;;;;;;;8.68;6.08;;;;;;;15.27;66.79;102096.79;1827152;78;21061;-84
2021/09/22 10:04:19;;;;;;;8.40;6.12;;;;;;;15.22;66.57;102091.37;1826744;78;21877;-84
2021/09/22 10:06:47;;;;;;;12.63;5.87;;;;;;;15.15;66.44;102090.73;1826640;78;21495;-84
2021/09/22 10:09:14;;;;;;;16.37;7.55;;;;;;;15.09;66.65;102087.48;1826840;78;21018;-84
2021/09/22 10:11:45;;;;;;;31.30;10.70;;;;;;;15.06;66.56;102086.49;1826797;78;21090;-84
2021/09/22 10:14:12;;;;;;;18.67;9.10;;;;;;;15.05;66.66;102088.66;1826732;78;21029;-85
2021/09/22 10:16:39;;;;;;;12.18;6.55;;;;;;;15.06;66.71;102094.45;1826752;78;21750;-84
2021/09/22 10:19:06;;;;;;;16.27;6.65;;;;;;;15.04;66.42;102091.75;1799091;78;21030;-84
2021/09/22 10:21:34;;;;;;;16.15;6.42;;;;;;;15.00;66.47;102086.30;1826762;78;21081;-85
2021/09/22 10:24:10;;;;;;;15.18;6.00;;;;;;;15.04;66.62;102082.91;1826887;78;21476;-85
2021/09/22 10:26:38;;;;;;;18.05;13.98;;;;;;;15.11;66.65;102085.77;1795723;78;21037;-84
2021/09/22 10:29:28;;;;;;;13.03;11.40;;;;;;;15.18;66.53;102083.27;1823680;78;21860;-84
2021/09/22 10:32:01;;;;;;;15.10;11.63;;;;;;;15.22;66.53;102087.80;1806097;78;21531;-84
2021/09/22 10:34:35;;;;;;;21.73;15.88;;;;;;;15.23;66.47;102082.98;1823242;78;21104;-84
2021/09/22 10:37:04;;;;;;;18.05;12.80;;;;;;;15.27;66.67;102084.41;1823523;78;21054;-83
2021/09/22 10:39:42;;;;;;;13.25;8.03;;;;;;;15.32;66.74;102080.14;1823936;78;21061;-83
2021/09/22 10:42:24;;;;;;;14.47;7.12;;;;;;;15.40;66.61;102082.99;1823705;78;22569;-83
2021/09/22 10:44:50;;;;;;;10.32;6.80;;;;;;;15.46;66.44;102080.48;1818877;78;21034;-84
2021/09/22 10:47:33;;;;;;;12.35;7.83;;;;;;;15.59;66.36;102086.12;1823836;78;21053;-83
2021/09/22 10:49:59;;;;;;;38.70;8.73;;;;;;;15.71;66.33;102083.77;1824012;78;21564;-84
2021/09/22 10:52:40;;;;;;;22.90;8.93;;;;;;;15.85;66.04;102076.20;1794289;78;21057;-83
2021/09/22 10:55:16;;;;;;;16.97;7.55;;;;;;;15.90;65.48;102074.56;1823904;78;21712;-84
2021/09/22 10:57:46;;;;;;;10.53;5.00;;;;;;;15.92;65.49;102076.83;1823731;78;21057;-84
2021/09/22 11:00:21;;;;;;;10.85;5.28;;;;;;;16.02;64.91;102084.14;1823742;78;21563;-83
2021/09/22 11:02:52;;;;;;;6.03;4.17;;;;;;;16.06;64.30;102085.11;1823660;78;21818;-84
2021/09/22 11:05:32;;;;;;;7.30;3.47;;;;;;;16.10;64.31;102074.61;1761574;80;21089;-84
2021/09/22 11:08:08;;;;;;;5.83;3.65;;;;;;;16.39;64.30;102077.47;1823635;78;21989;-84
2021/09/22 11:10:53;;;;;;;6.28;3.77;;;;;;;16.67;63.66;102073.20;1823691;78;20977;-84
2021/09/22 11:13:26;;;;;;;9.40;3.77;;;;;;;16.88;63.29;102075.88;1823849;78;21393;-84
2021/09/22 11:15:55;;;;;;;6.57;4.07;;;;;;;16.98;62.78;102080.50;1823998;78;21089;-84
2021/09/22 11:18:22;;;;;;;4.78;3.20;;;;;;;17.03;61.92;102076.17;1823659;78;21029;-84
2021/09/22 11:20:57;;;;;;;5.03;3.00;;;;;;;17.06;61.45;102080.23;1823691;78;21860;-84
2021/09/22 11:23:24;;;;;;;3.70;2.60;;;;;;;17.01;61.02;102081.90;1823288;78;21043;-84
2021/09/22 11:25:51;;;;;;;4.30;3.45;;;;;;;16.78;60.08;102090.72;1823759;78;20990;-84
2021/09/22 11:28:18;;;;;;;7.28;5.40;;;;;;;16.56;59.80;102079.17;1798405;78;21108;-84
2021/09/22 11:30:52;;;;;;;8.20;4.03;;;;;;;16.39;60.21;102078.80;1826586;78;21057;-84
2021/09/22 11:33:21;;;;;;;6.85;3.60;;;;;;;16.37;59.80;102085.80;1800674;78;22511;-84